Home

PKWA Terminal Aerodrome Forecast (TAF)small logo


TAF provided by NWS Guam
2015/02/28 18:30
TAF PKWA 281724Z 2818/0118 08017KT P6SM VCSH FEW018 SCT050 BKN120 
      TEMPO 2818/2822 -SHRA SCT014 BKN030

      



Site Map | Contact Us | Copyright © 2007 Atmospheric Technology Services Company. All rights reserved.